• Join FlightAware (Why Join?)
  • Login
  • US Flag 
07:58AM EDT


 

Airport Tracker/Info


-or-


 

Live Flight TrackerFlight Track Log ✈ EJA131 ✈ 26-Feb-2012 ✈ KTUS - KBUR

Flight Track Log - Related Links

Times and Time Zones

All times are in EST time to prevent confusion due to time zone crossing. See the EJA131 flight status page for this flight to view local times or setup timezone preferences in your user account.

Time Position Orientation Groundspeed Altitude Reporting Facility
EST Latitude Longitude Course Direction KTS MPH feet Rate Location/Type
12:02AM 32.1017 -110.9253 141° Southeast 176 203 3,500  Level Albuquerque Center
12:03AM 32.0772 -110.9022 278° West 170 196 6,000 2,760 Climbing Albuquerque Center
12:04AM 32.0806 -110.9292 296° West 192 221 7,600 2,220 Climbing Albuquerque Center
12:05AM 32.1097 -110.9992 295° West 258 297 9,700 2,100 Climbing Albuquerque Center
12:06AM 32.1467 -111.0914 301° West 286 329 11,800 2,220 Climbing Albuquerque Center
12:07AM 32.1956 -111.1867 302° West 320 368 14,200 2,460 Climbing Albuquerque Center
12:08AM 32.2486 -111.2869 302° West 344 396 16,800 2,520 Climbing Albuquerque Center
12:09AM 32.3017 -111.3878 301° West 357 411 19,300 2,100 Climbing Albuquerque Center
12:10AM 32.3467 -111.4758 302° West 362 417 21,100 2,100 Climbing Albuquerque Center
12:11AM 32.3994 -111.5767 301° West 362 417 23,500 2,160 Climbing Albuquerque Center
12:12AM 32.4483 -111.6725 302° West 362 417 25,500 1,860 Climbing Albuquerque Center
12:13AM 32.4989 -111.7683 301° West 357 411 27,300 1,560 Climbing Albuquerque Center
12:14AM 32.5494 -111.8694 302° West 357 411 28,700 1,380 Climbing Albuquerque Center
12:15AM 32.6039 -111.9733 301° West 357 411 30,100 1,440 Climbing Albuquerque Center
12:16AM 32.6600 -112.0850 298° West 364 419 31,600 1,440 Climbing Albuquerque Center
12:17AM 32.7078 -112.1911 293° West 371 427 33,000 1,200 Climbing Albuquerque Center
12:18AM 32.7453 -112.2944 292° West 366 421 34,000 480 Climbing Albuquerque Center
12:19AM 32.7844 -112.4078 293° West 366 421 34,000  Level Albuquerque Center
12:20AM 32.8272 -112.5289 293° West 377 434 34,000  Level Albuquerque Center
12:21AM 32.8719 -112.6528 293° West 395 455 34,000  Level Albuquerque Center
12:22AM 32.9147 -112.7717 293° West 400 460 34,000  Level Albuquerque Center
12:23AM 32.9569 -112.8931 292° West 400 460 34,000  Level Albuquerque Center
12:24AM 32.9992 -113.0169 293° West 400 460 34,000  Level Albuquerque Center
12:25AM 33.0417 -113.1339 291° West 400 460 34,000  Level Albuquerque Center
12:26AM 33.0814 -113.2578 294° West 400 460 34,000  Level Albuquerque Center
12:27AM 33.1256 -113.3775 291° West 400 460 34,000  Level Albuquerque Center
12:28AM 33.1650 -113.5017 294° West 400 460 34,000  Level Albuquerque Center
12:29AM 33.2089 -113.6217 298° West 400 460 34,000  Level Albuquerque Center
12:32AM 33.3981 -114.0461 306° West 400 460 34,000  Level Los Angeles Center
12:33AM 33.4667 -114.1592 305° West 405 466 34,000 -60 Level Los Angeles Center
12:34AM 33.5289 -114.2672 307° West 411 473 33,900  Descending Los Angeles Center
12:35AM 33.5972 -114.3781 307° West 411 473 34,000  Climbing Los Angeles Center
12:36AM 33.6656 -114.4864 315° West 416 479 34,000  Level Los Angeles Center
12:37AM 33.7483 -114.5872 313° West 421 484 34,000 -60 Level Los Angeles Center
12:38AM 33.8183 -114.6761 314° West 421 484 33,900  Descending Los Angeles Center
12:39AM 33.8967 -114.7722 314° West 410 472 34,000  Climbing Los Angeles Center
12:40AM 33.9747 -114.8689 314° West 405 466 34,000  Level Los Angeles Center
12:41AM 34.0531 -114.9656 313° West 405 466 34,000  Level Los Angeles Center
12:42AM 34.1311 -115.0672 314° West 405 466 34,000  Level Los Angeles Center
12:43AM 34.2114 -115.1692 313° West 405 466 34,000  Level Los Angeles Center
12:44AM 34.2892 -115.2689 314° West 410 472 34,000  Level Los Angeles Center
12:45AM 34.3672 -115.3664 315° West 410 472 34,000  Level Los Angeles Center
12:46AM 34.4492 -115.4664 314° West 410 472 34,000  Level Los Angeles Center
12:47AM 34.5247 -115.5614 313° West 410 472 34,000  Level Los Angeles Center
12:48AM 34.6003 -115.6594 316° Northwest 405 466 34,000  Level Los Angeles Center
12:49AM 34.6819 -115.7550 308° West 400 460 34,000 -300 Level Los Angeles Center
12:50AM 34.7489 -115.8608 283° West 400 460 33,500 -1,260 Descending Los Angeles Center
12:51AM 34.7722 -115.9847 275° West 388 447 31,500 -2,100 Descending Los Angeles Center
12:52AM 34.7828 -116.1264 272° West 373 429 29,400 -2,100 Descending Los Angeles Center
12:53AM 34.7867 -116.2578 272° West 379 436 27,300 -2,100 Descending Los Angeles Center
12:54AM 34.7908 -116.3894 269° West 390 449 25,200 -2,100 Descending Los Angeles Center
12:55AM 34.7883 -116.5233 263° West 390 449 23,100 -2,100 Descending Los Angeles Center
12:56AM 34.7753 -116.6522 265° West 390 449 21,000 -1,560 Descending Los Angeles Center
12:57AM 34.7686 -116.7483 262° West 385 443 20,000 -540 Descending Los Angeles Center
12:58AM 34.7531 -116.8872 264° West 385 443 20,000  Level Los Angeles Center
12:59AM 34.7419 -117.0061 262° West 380 437 20,000 -360 Level Los Angeles Center
01:00AM 34.7283 -117.1222 261° West 362 417 19,300 -720 Descending Los Angeles Center
01:01AM 34.7128 -117.2433 262° West 362 417 18,600 -900 Descending Los Angeles Center
01:02AM 34.6992 -117.3617 260° West 362 417 17,500 -1,140 Descending Los Angeles Center
01:03AM 34.6811 -117.4903 261° West 362 417 16,400 -1,200 Descending Los Angeles Center
01:04AM 34.6650 -117.6114 262° West 362 417 15,200 -1,200 Descending Los Angeles Center
01:05AM 34.6511 -117.7247 260° West 357 411 14,100 -1,200 Descending Los Angeles Center
01:06AM 34.6350 -117.8406 261° West 352 405 12,900 -1,020 Descending Los Angeles Center
01:07AM 34.6231 -117.9361 261° West 341 392 12,100 -900 Descending Los Angeles Center
01:08AM 34.6089 -118.0394 261° West 328 377 11,100 -960 Descending Los Angeles Center
01:09AM 34.5969 -118.1350 261° West 310 357 10,200 -1,020 Descending Los Angeles Center
01:10AM 34.5828 -118.2381 261° West 298 343 9,100 -960 Descending Los Angeles Center
01:11AM 34.5706 -118.3286 257° West 281 323 8,300 -600 Descending Los Angeles Center
01:12AM 34.5544 -118.4114 213° Southwest 271 312 7,900 -720 Descending Los Angeles Center
01:13AM 34.5078 -118.4481 202° Southwest 243 280 6,900 -960 Descending Los Angeles Center
01:14AM 34.4364 -118.4836 211° Southwest 234 269 6,000 -600 Descending Los Angeles Center
01:15AM 34.3769 -118.5272 221° Southwest 250 288 5,800 -600 Descending Los Angeles Center
01:16AM 34.3281 -118.5789 191° South 250 288 4,900 -480 Descending Los Angeles Center
01:17AM 34.2714 -118.5922 162° South 216 249 4,900 -420 Level Los Angeles Center
01:18AM 34.2175 -118.5706 104° East 198 228 4,100 -960 Descending Los Angeles Center
01:19AM 34.2000 -118.4833 90° East 166 191 2,900 -960 Descending Southern California TRACON
01:20AM 34.2000 -118.4500 90° East 122 140 2,200 -720 Descending Southern California TRACON
01:21AM 34.2000 -118.4167 90° East 110 127 1,500 -660 Descending Southern California TRACON